createdAt,value
2023-11-18T14:51:18.384Z,83936.59
2023-11-18T14:53:45.961Z,83942.09
2023-11-18T14:56:13.251Z,83873.13
2023-11-18T14:58:40.602Z,83906.91
2023-11-18T15:01:10.652Z,83882.72
2023-11-18T15:03:38.299Z,83939.78
2023-11-18T15:06:07.357Z,83863.38
2023-11-18T15:08:35.331Z,83945.44
2023-11-18T15:11:04.029Z,83947.00
2023-11-18T15:13:31.348Z,83942.41
2023-11-18T15:15:59.717Z,83931.94
2023-11-18T15:18:27.087Z,83934.44
2023-11-18T15:20:54.358Z,83928.06
2023-11-18T15:23:23.359Z,83902.72
2023-11-18T15:25:53.791Z,83947.22
2023-11-18T15:28:22.313Z,83938.00
2023-11-18T15:30:50.126Z,83943.34
2023-11-18T15:33:17.530Z,83870.38
2023-11-18T15:35:45.070Z,83935.41
2023-11-18T15:38:19.082Z,83925.50
2023-11-18T15:40:51.501Z,83886.91
2023-11-18T15:43:18.970Z,83946.91
2023-11-18T15:45:46.209Z,83948.50
2023-11-18T15:48:13.899Z,83908.09
2023-11-18T15:50:41.294Z,83938.41
2023-11-18T15:53:08.835Z,83948.72
2023-11-18T15:55:38.853Z,83944.88
2023-11-18T15:58:06.465Z,83939.63
2023-11-18T16:00:33.727Z,83920.78
2023-11-18T16:03:03.013Z,83803.38
2023-11-18T16:05:36.033Z,83921.38
2023-11-18T16:08:05.472Z,83934.66
2023-11-18T16:10:33.364Z,83927.72
2023-11-18T16:13:03.615Z,83941.31
2023-11-18T16:15:33.201Z,83922.19
2023-11-18T16:18:02.161Z,83913.47
2023-11-18T16:20:35.282Z,83913.78
2023-11-18T16:23:06.737Z,83915.97
2023-11-18T16:25:37.728Z,83910.31
2023-11-18T16:28:06.299Z,83897.63
2023-11-18T16:30:34.459Z,83899.41
2023-11-18T16:33:03.185Z,83903.28
2023-11-18T16:35:31.088Z,83911.41
2023-11-18T16:38:01.774Z,83892.06
2023-11-18T16:40:30.266Z,83904.34
2023-11-18T16:43:00.140Z,83905.75
2023-11-18T16:45:28.192Z,83899.03
2023-11-18T16:47:56.330Z,83906.34
2023-11-18T16:50:24.701Z,83903.66
2023-11-18T16:52:52.629Z,83908.72
2023-11-18T16:55:22.703Z,83896.81
2023-11-18T16:57:53.915Z,83897.81
2023-11-18T17:00:27.081Z,83880.38
2023-11-18T17:02:58.125Z,83888.88
2023-11-18T17:05:31.824Z,83892.44
2023-11-18T17:08:01.629Z,83892.66
2023-11-18T17:10:29.694Z,83897.72
2023-11-18T17:12:59.347Z,83837.19
2023-11-18T17:15:26.858Z,83877.91
2023-11-18T17:18:00.677Z,83884.66
2023-11-18T17:20:29.018Z,83806.03
2023-11-18T17:22:56.102Z,83886.75
2023-11-18T17:25:24.936Z,83883.47
2023-11-18T17:27:54.410Z,83818.53
2023-11-18T17:30:22.076Z,83876.25
2023-11-18T17:32:54.154Z,83885.63
2023-11-18T17:35:22.912Z,83786.75
2023-11-18T17:37:50.659Z,83875.75
2023-11-18T17:40:19.407Z,83828.69
2023-11-18T17:42:46.743Z,83871.06
2023-11-18T17:45:16.049Z,83874.47
2023-11-18T17:47:44.986Z,83746.56
2023-11-18T17:50:15.598Z,83851.06
2023-11-18T17:52:48.450Z,83870.84
2023-11-18T17:55:19.186Z,83848.25
2023-11-18T17:57:48.043Z,83860.34
2023-11-18T18:00:24.629Z,83866.16
2023-11-18T18:02:53.678Z,83864.03
2023-11-18T18:05:22.023Z,83869.22
2023-11-18T18:07:49.346Z,83745.66
2023-11-18T18:10:17.687Z,83788.06
2023-11-18T18:12:48.462Z,83843.75
2023-11-18T18:15:16.077Z,83853.16
2023-11-18T18:17:44.333Z,83857.19
2023-11-18T18:20:13.698Z,83858.03
2023-11-18T18:22:42.322Z,83847.28
2023-11-18T18:25:11.194Z,83824.25
2023-11-18T18:27:39.687Z,83822.69
2023-11-18T18:30:08.277Z,83814.88
2023-11-18T18:32:35.735Z,83821.97
2023-11-18T18:35:03.714Z,83832.22
2023-11-18T18:37:31.965Z,83792.69
2023-11-18T18:39:59.935Z,83753.06
2023-11-18T18:42:27.153Z,83847.84
2023-11-18T18:44:55.997Z,83820.91
2023-11-18T18:47:26.009Z,83840.91
2023-11-18T18:49:55.021Z,83833.75
2023-11-18T18:52:22.277Z,83836.72
2023-11-18T18:54:50.373Z,83837.09
2023-11-18T18:57:17.608Z,83833.72
2023-11-18T18:59:44.811Z,83818.25
2023-11-18T19:02:13.085Z,83819.03
2023-11-18T19:04:40.465Z,83821.16
2023-11-18T19:07:08.562Z,83808.28
2023-11-18T19:09:35.853Z,83801.72
2023-11-18T19:12:04.914Z,83815.75
2023-11-18T19:14:32.323Z,83793.75
2023-11-18T19:17:02.229Z,83807.59
2023-11-18T19:19:29.562Z,83815.91
2023-11-18T19:21:59.569Z,83806.00
2023-11-18T19:24:28.205Z,83808.59
2023-11-18T19:26:55.707Z,83813.94
2023-11-18T19:29:23.129Z,83818.91
2023-11-18T19:31:50.387Z,83756.00
2023-11-18T19:34:17.618Z,83808.84
2023-11-18T19:36:47.764Z,83710.78
2023-11-18T19:39:15.200Z,83805.81
2023-11-18T19:41:42.880Z,83759.06
2023-11-18T19:44:10.640Z,83802.03
2023-11-18T19:46:37.918Z,83800.47
2023-11-18T19:49:05.691Z,83790.16
2023-11-18T19:51:32.922Z,83809.91
2023-11-18T19:54:00.402Z,83680.28
2023-11-18T19:56:27.693Z,83793.22
2023-11-18T19:58:54.994Z,83782.63
2023-11-18T20:01:22.314Z,83775.72
2023-11-18T20:03:49.867Z,83762.16
2023-11-18T20:06:17.119Z,83767.59
2023-11-18T20:08:44.413Z,83763.84
2023-11-18T20:11:11.655Z,83767.50
2023-11-18T20:13:39.242Z,83770.59
2023-11-18T20:16:08.977Z,83779.63
2023-11-18T20:18:36.632Z,83780.00
2023-11-18T20:21:04.487Z,83717.69
2023-11-18T20:23:31.977Z,83773.06
2023-11-18T20:25:59.195Z,83785.75
2023-11-18T20:28:27.566Z,83775.06
2023-11-18T20:30:57.290Z,83772.72
2023-11-18T20:33:24.742Z,83762.13
2023-11-18T20:35:52.053Z,83758.03
2023-11-18T20:38:19.488Z,83758.63
2023-11-18T20:40:47.578Z,83754.75
2023-11-18T20:43:15.885Z,83765.53
2023-11-18T20:45:43.141Z,83748.50
2023-11-18T20:48:10.575Z,83743.38
2023-11-18T20:50:38.050Z,83740.97
2023-11-18T20:53:05.681Z,83740.34
2023-11-18T20:55:33.379Z,83745.03
2023-11-18T20:58:03.296Z,83739.56
2023-11-18T21:00:31.836Z,83726.88
2023-11-18T21:02:59.416Z,83722.09
2023-11-18T21:05:27.305Z,83711.19
2023-11-18T21:07:54.761Z,83716.91
2023-11-18T21:10:22.895Z,83709.94
2023-11-18T21:12:51.526Z,83703.78
2023-11-18T21:15:20.856Z,83697.38
2023-11-18T21:17:51.560Z,83698.44
2023-11-18T21:20:20.717Z,83695.28
2023-11-18T21:22:50.558Z,83689.94
2023-11-18T21:25:17.807Z,83681.81
2023-11-18T21:27:48.795Z,83675.25
2023-11-18T21:30:16.177Z,83663.19
2023-11-18T21:32:44.503Z,83656.72
2023-11-18T21:35:19.511Z,83656.25
2023-11-18T21:37:51.874Z,83669.88
2023-11-18T21:40:20.718Z,83665.13
2023-11-18T21:42:48.233Z,83584.63
2023-11-18T21:45:15.613Z,83537.16
2023-11-18T21:47:46.504Z,83661.69
2023-11-18T21:50:16.884Z,83603.72
2023-11-18T21:52:47.616Z,83654.88
2023-11-18T21:55:15.161Z,83635.25
2023-11-18T21:57:43.709Z,83624.25
2023-11-18T22:00:18.145Z,83622.19
2023-11-18T22:02:47.533Z,83638.44
2023-11-18T22:05:15.541Z,83593.41
2023-11-18T22:07:46.902Z,83629.06
2023-11-18T22:10:18.766Z,83636.47
2023-11-18T22:12:46.768Z,83643.50
2023-11-18T22:15:23.433Z,83640.88
2023-11-18T22:17:53.263Z,83625.59
2023-11-18T22:20:26.205Z,83624.91
2023-11-18T22:22:53.806Z,83625.59
2023-11-18T22:25:21.794Z,83623.53
2023-11-18T22:27:49.357Z,83619.38
2023-11-18T22:30:17.674Z,83618.56
2023-11-18T22:32:45.281Z,83621.31
2023-11-18T22:35:12.673Z,83624.25
2023-11-18T22:37:40.013Z,83624.44
2023-11-18T22:40:12.169Z,83608.06
2023-11-18T22:42:40.935Z,83614.13
2023-11-18T22:45:17.599Z,83539.22
2023-11-18T22:47:46.697Z,83616.59
2023-11-18T22:50:14.288Z,83602.25
2023-11-18T22:52:42.013Z,83618.97
2023-11-18T22:57:40.584Z,83603.81
2023-11-18T23:00:16.053Z,83498.00
2023-11-18T23:02:43.700Z,83600.69
2023-11-18T23:05:14.888Z,83606.22
2023-11-18T23:07:45.716Z,83598.25
2023-11-18T23:10:15.493Z,83609.81
2023-11-18T23:12:42.721Z,83611.81
2023-11-18T23:15:10.427Z,83611.81
2023-11-18T23:17:37.896Z,83606.13
2023-11-18T23:20:09.696Z,83603.22
2023-11-18T23:22:37.332Z,83603.41
2023-11-18T23:25:04.879Z,83593.78
2023-11-18T23:27:34.815Z,83594.66
2023-11-18T23:30:02.390Z,83591.41
2023-11-18T23:32:31.704Z,83586.00
2023-11-18T23:34:59.579Z,83509.88
2023-11-18T23:37:27.003Z,83597.25
2023-11-18T23:39:55.561Z,83575.50
2023-11-18T23:42:22.896Z,83590.00
2023-11-18T23:44:50.176Z,83587.06
2023-11-18T23:47:17.657Z,83585.81
2023-11-18T23:49:45.201Z,83578.59
2023-11-18T23:52:13.053Z,83574.06
2023-11-18T23:54:40.298Z,83567.56
2023-11-18T23:57:07.655Z,83562.22
2023-11-18T23:59:34.917Z,83496.81
